Time;durP1;ratioP1;P1;durP2;ratioP2;P2;SDS_P1;SDS_P2;PMS_P1;PMS_P2;Temp;Humidity;BMP_temperature;BMP_pressure;BME280_temperature;BME280_humidity;BME280_pressure;Samples;Min_cycle;Max_cycle;Signal;HPM_P1;HPM_P2
2020/12/11 00:01:04;;;;;;;275.65;155.57;;;;;;;;;;5014539;28;20108;-53
2020/12/11 00:03:30;;;;;;;258.23;148.95;;;;;;;;;;5014719;28;20061;-57
2020/12/11 00:05:56;;;;;;;288.55;165.55;;;;;;;;;;5014659;28;20029;-52
2020/12/11 00:08:22;;;;;;;272.95;162.57;;;;;;;;;;5014166;28;20072;-54
2020/12/11 00:10:48;;;;;;;270.30;153.02;;;;;;;;;;5013446;28;20053;-56
2020/12/11 00:13:14;;;;;;;264.58;149.98;;;;;;;;;;5014883;28;20034;-53
2020/12/11 00:15:40;;;;;;;259.55;148.75;;;;;;;;;;5014106;28;20026;-54
2020/12/11 00:18:07;;;;;;;249.98;142.52;;;;;;;;;;5010702;28;20472;-54
2020/12/11 00:20:33;;;;;;;248.65;139.15;;;;;;;;;;5013259;28;20053;-52
2020/12/11 00:22:59;;;;;;;258.17;146.02;;;;;;;;;;5012818;28;20089;-52
2020/12/11 00:25:25;;;;;;;271.73;153.32;;;;;;;;;;5014639;28;20485;-54
2020/12/11 00:27:51;;;;;;;255.57;146.10;;;;;;;;;;5014129;28;20474;-54
2020/12/11 00:30:17;;;;;;;238.75;139.48;;;;;;;;;;5014082;28;20022;-53
2020/12/11 00:32:43;;;;;;;248.27;146.45;;;;;;;;;;5014463;28;20354;-53
2020/12/11 00:35:09;;;;;;;238.35;142.32;;;;;;;;;;5014701;28;20026;-53
2020/12/11 00:37:36;;;;;;;237.77;137.40;;;;;;;;;;5014033;28;20109;-55
2020/12/11 00:40:02;;;;;;;247.18;141.43;;;;;;;;;;5014312;28;20088;-52
2020/12/11 00:42:28;;;;;;;239.30;139.15;;;;;;;;;;5013998;28;20117;-55
2020/12/11 00:44:54;;;;;;;231.55;136.40;;;;;;;;;;5013926;28;20057;-56
2020/12/11 00:47:20;;;;;;;240.02;141.20;;;;;;;;;;5013977;28;20026;-56
2020/12/11 00:49:46;;;;;;;233.13;138.40;;;;;;;;;;5013750;28;20101;-53
2020/12/11 00:52:12;;;;;;;233.88;137.35;;;;;;;;;;5014722;28;20030;-53
2020/12/11 00:54:38;;;;;;;224.55;131.98;;;;;;;;;;5014347;28;20037;-53
2020/12/11 00:57:04;;;;;;;242.38;141.32;;;;;;;;;;5013486;28;20107;-52
2020/12/11 00:59:30;;;;;;;238.13;138.13;;;;;;;;;;5014150;28;20398;-52
2020/12/11 01:01:56;;;;;;;244.43;141.05;;;;;;;;;;5014101;28;20386;-57
2020/12/11 01:04:22;;;;;;;253.23;144.82;;;;;;;;;;5014015;28;20030;-56
2020/12/11 01:06:48;;;;;;;237.70;134.73;;;;;;;;;;5014090;28;20022;-57
2020/12/11 01:09:14;;;;;;;209.25;121.57;;;;;;;;;;5008145;28;20080;-52
2020/12/11 01:11:40;;;;;;;197.07;115.68;;;;;;;;;;5011361;28;20026;-55
2020/12/11 01:14:07;;;;;;;193.25;113.00;;;;;;;;;;5013992;28;20030;-54
2020/12/11 01:16:33;;;;;;;182.60;108.75;;;;;;;;;;5014136;28;20121;-54
2020/12/11 01:18:59;;;;;;;182.52;109.90;;;;;;;;;;5013908;28;20042;-57
2020/12/11 01:21:25;;;;;;;195.38;112.32;;;;;;;;;;5013640;28;20029;-54
2020/12/11 01:23:52;;;;;;;202.35;123.25;;;;;;;;;;5014042;28;20030;-54
2020/12/11 01:26:18;;;;;;;196.13;118.43;;;;;;;;;;5013542;28;20109;-54
2020/12/11 01:28:44;;;;;;;188.27;113.30;;;;;;;;;;5013551;28;20030;-53
2020/12/11 01:31:10;;;;;;;164.35;99.47;;;;;;;;;;5013601;28;20104;-55
2020/12/11 01:33:36;;;;;;;159.65;92.57;;;;;;;;;;5013679;28;20030;-55
2020/12/11 01:36:02;;;;;;;165.77;96.68;;;;;;;;;;5013610;28;20033;-56
2020/12/11 01:38:28;;;;;;;149.60;87.85;;;;;;;;;;5012933;28;20030;-54
2020/12/11 01:40:54;;;;;;;132.93;77.38;;;;;;;;;;5013583;28;20037;-53
2020/12/11 01:43:20;;;;;;;129.20;79.22;;;;;;;;;;5013267;28;20026;-53
2020/12/11 01:45:47;;;;;;;123.78;76.68;;;;;;;;;;5013163;28;20065;-57
2020/12/11 01:48:13;;;;;;;149.13;88.88;;;;;;;;;;5012995;28;20022;-54
2020/12/11 01:50:39;;;;;;;159.68;92.05;;;;;;;;;;5013314;28;20109;-55
2020/12/11 01:53:09;;;;;;;151.20;89.60;;;;;;;;;;5012727;28;20037;-55
2020/12/11 01:55:35;;;;;;;152.40;90.20;;;;;;;;;;5012704;28;20033;-55
2020/12/11 01:58:02;;;;;;;161.65;96.57;;;;;;;;;;5012926;28;20481;-56
2020/12/11 02:00:28;;;;;;;168.40;99.53;;;;;;;;;;5013014;28;20030;-54
2020/12/11 02:03:05;;;;;;;165.30;98.85;;;;;;;;;;5012925;28;20029;-54
2020/12/11 02:05:31;;;;;;;144.30;87.28;;;;;;;;;;5012286;28;20482;-54
2020/12/11 02:07:58;;;;;;;146.20;87.10;;;;;;;;;;5012541;28;20029;-57
2020/12/11 02:10:24;;;;;;;162.40;97.05;;;;;;;;;;5012172;28;20053;-54
2020/12/11 02:12:50;;;;;;;161.52;97.43;;;;;;;;;;5012557;28;20026;-53
2020/12/11 02:15:16;;;;;;;169.30;101.55;;;;;;;;;;5012510;28;20030;-57
2020/12/11 02:17:42;;;;;;;166.68;96.55;;;;;;;;;;5011878;28;20022;-52
2020/12/11 02:20:08;;;;;;;169.27;98.75;;;;;;;;;;5011885;28;20034;-57
2020/12/11 02:22:34;;;;;;;164.27;97.90;;;;;;;;;;5011047;28;20041;-53
2020/12/11 02:25:00;;;;;;;164.18;98.80;;;;;;;;;;5011202;28;20022;-56
2020/12/11 02:27:26;;;;;;;156.23;95.25;;;;;;;;;;5010825;28;20108;-54
2020/12/11 02:29:52;;;;;;;125.72;76.18;;;;;;;;;;5011220;28;20034;-53
2020/12/11 02:32:19;;;;;;;133.23;80.03;;;;;;;;;;5011381;28;20368;-56
2020/12/11 02:34:45;;;;;;;129.88;80.60;;;;;;;;;;5010878;28;20028;-52
2020/12/11 02:37:15;;;;;;;157.02;95.03;;;;;;;;;;5011179;28;20018;-54
2020/12/11 02:39:41;;;;;;;162.15;95.68;;;;;;;;;;5008612;28;20038;-56
2020/12/11 02:42:08;;;;;;;187.32;109.72;;;;;;;;;;5011231;28;20022;-54
2020/12/11 02:44:34;;;;;;;185.52;110.82;;;;;;;;;;5010224;28;20029;-55
2020/12/11 02:47:00;;;;;;;207.15;122.68;;;;;;;;;;5008490;28;20013;-53
2020/12/11 02:49:26;;;;;;;208.05;118.25;;;;;;;;;;5011038;28;20080;-54
2020/12/11 02:51:52;;;;;;;213.05;124.82;;;;;;;;;;5011454;28;20022;-54
2020/12/11 02:54:18;;;;;;;209.80;125.82;;;;;;;;;;5012127;28;20389;-56
2020/12/11 02:56:44;;;;;;;225.13;132.25;;;;;;;;;;5010980;28;20715;-53
2020/12/11 02:59:10;;;;;;;222.50;130.05;;;;;;;;;;5011297;28;20049;-53
2020/12/11 03:01:36;;;;;;;234.00;134.02;;;;;;;;;;5010700;28;20022;-52
2020/12/11 03:04:02;;;;;;;235.25;133.23;;;;;;;;;;5008037;28;20080;-52
2020/12/11 03:06:31;;;;;;;208.18;120.60;;;;;;;;;;5020615;28;20053;-54
2020/12/11 03:08:57;;;;;;;222.82;127.75;;;;;;;;;;5010224;28;20026;-52
2020/12/11 03:11:24;;;;;;;251.07;138.45;;;;;;;;;;5011306;28;20061;-54
2020/12/11 03:13:50;;;;;;;260.75;144.70;;;;;;;;;;5011278;28;20064;-53
2020/12/11 03:16:19;;;;;;;280.33;151.15;;;;;;;;;;5011942;28;20085;-53
2020/12/11 03:18:45;;;;;;;264.45;146.25;;;;;;;;;;5011642;28;20034;-55
2020/12/11 03:21:11;;;;;;;281.23;148.82;;;;;;;;;;5010729;28;20493;-54
2020/12/11 03:23:38;;;;;;;275.00;152.65;;;;;;;;;;5012225;28;20490;-54
2020/12/11 03:26:04;;;;;;;271.90;152.20;;;;;;;;;;5012319;28;20030;-57
2020/12/11 03:28:31;;;;;;;271.23;152.27;;;;;;;;;;5011870;28;20033;-54
2020/12/11 03:30:57;;;;;;;261.75;147.48;;;;;;;;;;5012961;28;20026;-57
2020/12/11 03:33:23;;;;;;;255.80;144.25;;;;;;;;;;5016068;28;20033;-55
2020/12/11 03:35:50;;;;;;;244.93;139.88;;;;;;;;;;5015958;28;20030;-54
2020/12/11 03:38:16;;;;;;;255.70;143.73;;;;;;;;;;5015552;28;20125;-54
2020/12/11 03:40:42;;;;;;;257.60;144.70;;;;;;;;;;5015849;28;20041;-57
2020/12/11 03:43:08;;;;;;;246.32;138.68;;;;;;;;;;5015585;28;20026;-55
2020/12/11 03:45:34;;;;;;;245.27;139.27;;;;;;;;;;5015715;28;20855;-54
2020/12/11 03:48:00;;;;;;;249.93;138.65;;;;;;;;;;5015366;28;20028;-57
2020/12/11 03:50:26;;;;;;;244.30;139.10;;;;;;;;;;5015903;28;20113;-54
2020/12/11 03:52:52;;;;;;;241.48;137.45;;;;;;;;;;5015704;28;20037;-55
2020/12/11 03:55:18;;;;;;;257.65;144.07;;;;;;;;;;5015726;28;20049;-55
2020/12/11 03:57:44;;;;;;;251.27;146.40;;;;;;;;;;5015240;28;20421;-54
2020/12/11 04:00:10;;;;;;;241.90;139.45;;;;;;;;;;5015432;28;20858;-53
2020/12/11 04:02:36;;;;;;;242.05;140.63;;;;;;;;;;5015494;28;20097;-54
2020/12/11 04:05:05;;;;;;;239.48;138.23;;;;;;;;;;5015032;28;20061;-54
2020/12/11 04:07:31;;;;;;;240.15;136.40;;;;;;;;;;5015397;28;20026;-56
2020/12/11 04:09:57;;;;;;;235.45;138.55;;;;;;;;;;5014287;28;20081;-55
2020/12/11 04:12:23;;;;;;;245.48;139.07;;;;;;;;;;5030892;28;20432;-55
2020/12/11 04:14:49;;;;;;;234.93;135.77;;;;;;;;;;5015126;28;20113;-56
2020/12/11 04:17:15;;;;;;;247.55;145.00;;;;;;;;;;5015119;28;20034;-56
2020/12/11 04:19:41;;;;;;;242.82;138.50;;;;;;;;;;5015213;28;20397;-54
2020/12/11 04:22:07;;;;;;;235.20;137.43;;;;;;;;;;5014794;28;20545;-56
2020/12/11 04:24:33;;;;;;;234.63;133.48;;;;;;;;;;5015155;28;20053;-57
2020/12/11 04:26:59;;;;;;;218.27;125.07;;;;;;;;;;5015034;28;20064;-56
2020/12/11 04:29:25;;;;;;;230.23;130.18;;;;;;;;;;5014903;28;20028;-57
2020/12/11 04:31:55;;;;;;;254.90;144.27;;;;;;;;;;5015011;28;20033;-54
2020/12/11 04:34:21;;;;;;;225.00;131.57;;;;;;;;;;5014567;28;20091;-56
2020/12/11 04:36:55;;;;;;;215.77;123.75;;;;;;;;;;5014856;28;20026;-56
2020/12/11 04:39:21;;;;;;;208.27;122.50;;;;;;;;;;5014381;28;20080;-56
2020/12/11 04:41:48;;;;;;;218.35;126.10;;;;;;;;;;5014845;28;20058;-55
2020/12/11 04:44:14;;;;;;;228.50;132.20;;;;;;;;;;5014463;28;20057;-55
2020/12/11 04:46:40;;;;;;;223.60;129.68;;;;;;;;;;5014867;28;20025;-57
2020/12/11 04:49:07;;;;;;;229.90;130.48;;;;;;;;;;5014398;28;20482;-56
2020/12/11 04:51:33;;;;;;;222.43;129.52;;;;;;;;;;5014639;28;20026;-57
2020/12/11 04:54:00;;;;;;;209.57;124.07;;;;;;;;;;5014467;28;20033;-56
2020/12/11 04:56:26;;;;;;;198.35;120.07;;;;;;;;;;5014597;28;20029;-55
2020/12/11 04:58:54;;;;;;;200.75;113.43;;;;;;;;;;5014297;28;20042;-53
2020/12/11 05:01:32;;;;;;;242.80;141.45;;;;;;;;;;5013992;28;20116;-57
2020/12/11 05:03:59;;;;;;;211.05;128.50;;;;;;;;;;5012322;28;20075;-52
2020/12/11 05:06:26;;;;;;;207.63;123.53;;;;;;;;;;5007563;28;20034;-52
2020/12/11 05:09:16;;;;;;;185.70;111.15;;;;;;;;;;5011376;28;20037;-55
2020/12/11 05:11:43;;;;;;;175.70;104.25;;;;;;;;;;4991346;28;20073;-54
2020/12/11 05:14:27;;;;;;;175.05;104.60;;;;;;;;;;4992048;28;20466;-55
2020/12/11 05:17:02;;;;;;;191.13;109.47;;;;;;;;;;4975609;28;20549;-56
2020/12/11 05:19:29;;;;;;;190.73;111.80;;;;;;;;;;4991530;28;20057;-57
2020/12/11 05:22:07;;;;;;;182.80;106.85;;;;;;;;;;4991681;28;20101;-56
2020/12/11 05:24:42;;;;;;;184.98;108.00;;;;;;;;;;4991551;28;20085;-56
2020/12/11 05:27:23;;;;;;;181.88;106.22;;;;;;;;;;4989119;28;20150;-55
2020/12/11 05:29:49;;;;;;;190.00;112.28;;;;;;;;;;4989325;28;20494;-56
2020/12/11 05:32:15;;;;;;;190.73;112.53;;;;;;;;;;4991115;28;20034;-56
2020/12/11 05:34:41;;;;;;;184.23;109.95;;;;;;;;;;4991207;28;20035;-56
2020/12/11 05:37:07;;;;;;;171.60;98.80;;;;;;;;;;4990734;28;20037;-54
2020/12/11 05:39:34;;;;;;;153.30;91.65;;;;;;;;;;4991455;28;20088;-55
2020/12/11 05:42:01;;;;;;;143.25;84.25;;;;;;;;;;4991530;28;20046;-57
2020/12/11 05:44:31;;;;;;;144.00;84.60;;;;;;;;;;4990814;28;20109;-55
2020/12/11 05:46:58;;;;;;;149.05;87.55;;;;;;;;;;4991467;28;20030;-56
2020/12/11 05:49:26;;;;;;;150.52;83.15;;;;;;;;;;5008512;28;20038;-53
2020/12/11 05:51:56;;;;;;;138.02;82.20;;;;;;;;;;5013266;28;20030;-55
2020/12/11 05:54:23;;;;;;;141.10;77.43;;;;;;;;;;5012606;28;20041;-54
2020/12/11 05:56:50;;;;;;;150.82;82.75;;;;;;;;;;5013407;28;20026;-55
2020/12/11 05:59:19;;;;;;;156.18;90.60;;;;;;;;;;5012875;28;20033;-54
2020/12/11 06:01:45;;;;;;;153.38;88.70;;;;;;;;;;5013054;28;20066;-55
2020/12/11 06:04:12;;;;;;;149.48;84.75;;;;;;;;;;5012995;28;20017;-56
2020/12/11 06:06:38;;;;;;;140.82;82.18;;;;;;;;;;5011753;28;20026;-55
2020/12/11 06:09:04;;;;;;;135.07;75.78;;;;;;;;;;5012426;28;20030;-55
2020/12/11 06:11:34;;;;;;;159.82;89.00;;;;;;;;;;5012257;28;20036;-57
2020/12/11 06:14:02;;;;;;;180.30;102.85;;;;;;;;;;5012945;28;20026;-56
2020/12/11 06:16:30;;;;;;;178.25;103.45;;;;;;;;;;5012043;28;20029;-53
2020/12/11 06:19:00;;;;;;;183.70;108.88;;;;;;;;;;5013085;28;20389;-54
2020/12/11 06:21:27;;;;;;;199.35;116.22;;;;;;;;;;5012568;28;20058;-55
2020/12/11 06:23:53;;;;;;;195.10;114.82;;;;;;;;;;5013053;28;20072;-56
2020/12/11 06:26:20;;;;;;;219.40;126.88;;;;;;;;;;5012822;28;20069;-55
2020/12/11 06:28:50;;;;;;;211.55;123.85;;;;;;;;;;5012716;28;20038;-54
2020/12/11 06:31:16;;;;;;;214.60;127.10;;;;;;;;;;5012833;28;20466;-57
2020/12/11 06:33:49;;;;;;;222.43;129.07;;;;;;;;;;5012620;28;20036;-56
2020/12/11 06:36:15;;;;;;;226.35;133.57;;;;;;;;;;5012606;28;20033;-55
2020/12/11 06:38:41;;;;;;;218.55;129.88;;;;;;;;;;5012601;28;20037;-56
2020/12/11 06:41:08;;;;;;;217.13;128.18;;;;;;;;;;5012628;28;20030;-56
2020/12/11 06:43:46;;;;;;;198.65;118.32;;;;;;;;;;5012625;28;20026;-57
2020/12/11 06:46:22;;;;;;;183.35;108.88;;;;;;;;;;5012720;28;20053;-57
2020/12/11 06:49:07;;;;;;;201.75;116.82;;;;;;;;;;5012507;28;20496;-56
2020/12/11 06:51:34;;;;;;;208.85;117.22;;;;;;;;;;5000140;28;20025;-55
2020/12/11 06:54:00;;;;;;;209.00;123.57;;;;;;;;;;5012755;28;20129;-57
2020/12/11 06:56:45;;;;;;;204.13;121.63;;;;;;;;;;5012249;28;20049;-57
2020/12/11 06:59:31;;;;;;;200.05;120.13;;;;;;;;;;5012560;28;20068;-54
2020/12/11 07:02:17;;;;;;;180.63;106.03;;;;;;;;;;5008687;28;20041;-54
2020/12/11 07:04:44;;;;;;;182.85;110.78;;;;;;;;;;5012191;28;20022;-57
2020/12/11 07:07:10;;;;;;;211.43;127.15;;;;;;;;;;5015423;28;20045;-55
2020/12/11 07:09:44;;;;;;;201.68;117.88;;;;;;;;;;5016133;28;20068;-55
2020/12/11 07:12:10;;;;;;;196.07;119.00;;;;;;;;;;5016499;28;20125;-56
2020/12/11 07:14:36;;;;;;;191.00;116.15;;;;;;;;;;5016212;28;20034;-54
2020/12/11 07:17:02;;;;;;;195.02;117.63;;;;;;;;;;5016420;28;20026;-57
2020/12/11 07:19:38;;;;;;;188.07;111.75;;;;;;;;;;5016044;28;20038;-56
2020/12/11 07:22:04;;;;;;;186.75;113.78;;;;;;;;;;5003051;28;20026;-57
2020/12/11 07:24:30;;;;;;;193.02;107.45;;;;;;;;;;5015990;28;20088;-54
2020/12/11 07:27:03;;;;;;;184.30;107.07;;;;;;;;;;5016060;28;20409;-55
2020/12/11 07:29:29;;;;;;;220.63;127.95;;;;;;;;;;5016233;28;20042;-53
2020/12/11 07:31:56;;;;;;;222.18;123.88;;;;;;;;;;5016021;28;20026;-54
2020/12/11 07:34:27;;;;;;;211.57;120.78;;;;;;;;;;5015738;28;20048;-55
2020/12/11 07:36:57;;;;;;;293.20;173.60;;;;;;;;;;5016056;28;20022;-56
2020/12/11 07:39:24;;;;;;;222.90;126.20;;;;;;;;;;5015659;28;20037;-56
2020/12/11 07:41:51;;;;;;;193.45;113.50;;;;;;;;;;5015928;28;20030;-57
2020/12/11 07:44:24;;;;;;;185.73;108.18;;;;;;;;;;5016251;28;20425;-55
2020/12/11 07:46:51;;;;;;;211.60;121.75;;;;;;;;;;5015735;28;20148;-56
2020/12/11 07:49:17;;;;;;;267.25;153.35;;;;;;;;;;5015925;28;20672;-54
2020/12/11 07:51:48;;;;;;;410.23;241.75;;;;;;;;;;5015766;28;20014;-55
2020/12/11 07:54:15;;;;;;;287.92;168.85;;;;;;;;;;5015693;28;20030;-57
2020/12/11 07:56:41;;;;;;;310.50;186.65;;;;;;;;;;5015778;28;20096;-56
2020/12/11 07:59:14;;;;;;;339.95;203.13;;;;;;;;;;5015607;28;20041;-57
2020/12/11 08:01:42;;;;;;;252.30;149.85;;;;;;;;;;5002222;28;20766;-55
2020/12/11 08:04:08;;;;;;;239.10;139.32;;;;;;;;;;5015257;28;20041;-55
2020/12/11 08:06:34;;;;;;;230.60;135.57;;;;;;;;;;5015194;28;20465;-55
2020/12/11 08:09:13;;;;;;;196.82;121.38;;;;;;;;;;5014985;28;20530;-56
2020/12/11 08:11:42;;;;;;;193.82;114.38;;;;;;;;;;5015327;28;20028;-57
2020/12/11 08:14:08;;;;;;;196.07;115.78;;;;;;;;;;5015203;28;20033;-57
2020/12/11 08:16:35;;;;;;;189.32;111.68;;;;;;;;;;5014718;28;20097;-57
2020/12/11 08:19:01;;;;;;;196.68;114.47;;;;;;;;;;5014938;28;20038;-55
2020/12/11 08:21:29;;;;;;;164.93;96.25;;;;;;;;;;5014888;28;20022;-54
2020/12/11 08:23:55;;;;;;;157.93;92.40;;;;;;;;;;5015144;28;20113;-57
2020/12/11 08:26:21;;;;;;;174.15;98.03;;;;;;;;;;5014987;28;20033;-54
2020/12/11 08:28:48;;;;;;;122.57;71.72;;;;;;;;;;5014582;28;20079;-55
2020/12/11 08:31:19;;;;;;;129.45;74.22;;;;;;;;;;5015022;28;20029;-57
2020/12/11 08:33:46;;;;;;;122.63;69.53;;;;;;;;;;5014696;28;20466;-55
2020/12/11 08:36:18;;;;;;;135.85;72.68;;;;;;;;;;5014785;28;20611;-57
2020/12/11 08:38:44;;;;;;;139.02;80.32;;;;;;;;;;5014399;28;20038;-55
2020/12/11 08:41:17;;;;;;;133.00;71.38;;;;;;;;;;5014557;28;20077;-55
2020/12/11 08:43:46;;;;;;;114.40;62.13;;;;;;;;;;5014559;28;20121;-54
2020/12/11 08:51:24;;;;;;;96.38;48.97;;;;;;;;;;5014491;28;20057;-56
2020/12/11 08:53:54;;;;;;;101.32;51.65;;;;;;;;;;5014513;28;20390;-55
2020/12/11 08:56:20;;;;;;;80.70;40.03;;;;;;;;;;5014356;28;20465;-54
2020/12/11 08:58:46;;;;;;;87.90;45.22;;;;;;;;;;5014216;28;20036;-57
2020/12/11 09:01:12;;;;;;;90.45;46.10;;;;;;;;;;5014099;28;20099;-56
2020/12/11 09:03:38;;;;;;;91.40;46.45;;;;;;;;;;5014271;28;20014;-56
2020/12/11 09:06:04;;;;;;;93.95;48.83;;;;;;;;;;5014089;28;20454;-55
2020/12/11 09:08:30;;;;;;;91.50;46.58;;;;;;;;;;5014133;28;20535;-56
2020/12/11 09:10:56;;;;;;;93.75;49.65;;;;;;;;;;5013751;28;20076;-54
2020/12/11 09:13:22;;;;;;;95.60;47.90;;;;;;;;;;5014007;28;20060;-54
2020/12/11 09:15:48;;;;;;;97.22;52.45;;;;;;;;;;5014083;28;20022;-55
2020/12/11 09:18:14;;;;;;;75.63;40.33;;;;;;;;;;5013744;28;20033;-55
2020/12/11 09:20:40;;;;;;;83.10;47.08;;;;;;;;;;5014001;28;20037;-56
2020/12/11 09:23:06;;;;;;;93.78;51.17;;;;;;;;;;5013974;28;20022;-55
2020/12/11 09:25:32;;;;;;;73.95;39.63;;;;;;;;;;5013714;28;20026;-55
2020/12/11 09:27:58;;;;;;;69.63;37.47;;;;;;;;;;5013535;28;20029;-54
2020/12/11 09:30:28;;;;;;;67.78;36.13;;;;;;;;;;5012848;28;20033;-54
2020/12/11 09:35:32;;;;;;;75.72;39.15;;;;;;;;;;5013425;28;20053;-55
2020/12/11 09:37:59;;;;;;;93.72;47.50;;;;;;;;;;5013364;28;20037;-54
2020/12/11 09:46:08;;;;;;;89.90;46.90;;;;;;;;;;5013461;28;20116;-55
2020/12/11 09:48:52;;;;;;;70.03;35.75;;;;;;;;;;5013126;28;20045;-54
2020/12/11 09:56:30;;;;;;;85.95;46.13;;;;;;;;;;5012517;28;20026;-54
2020/12/11 09:59:02;;;;;;;86.78;46.75;;;;;;;;;;5012822;28;20041;-55
2020/12/11 10:04:14;;;;;;;87.35;47.30;;;;;;;;;;5013221;28;20574;-56
2020/12/11 10:06:40;;;;;;;90.35;51.42;;;;;;;;;;5012366;28;20032;-56
2020/12/11 10:09:06;;;;;;;102.38;53.08;;;;;;;;;;5012775;28;20038;-57
2020/12/11 10:11:32;;;;;;;84.93;45.75;;;;;;;;;;5012871;28;20397;-56
2020/12/11 10:14:26;;;;;;;83.13;42.60;;;;;;;;;;5012924;28;20453;-56
2020/12/11 10:16:44;;;;;;;85.00;45.85;;;;;;;;;;5012463;28;20034;-55
2020/12/11 10:19:11;;;;;;;97.15;50.97;;;;;;;;;;5012405;28;20184;-56
2020/12/11 10:21:37;;;;;;;88.22;46.65;;;;;;;;;;5012228;28;20101;-55
2020/12/11 10:24:03;;;;;;;100.80;56.90;;;;;;;;;;5012746;28;20061;-56
2020/12/11 10:26:29;;;;;;;90.55;47.53;;;;;;;;;;5012777;28;20025;-57
2020/12/11 10:28:55;;;;;;;83.82;43.20;;;;;;;;;;5012880;28;20478;-55
2020/12/11 10:31:21;;;;;;;80.47;42.03;;;;;;;;;;5012925;28;20429;-55
2020/12/11 10:33:47;;;;;;;99.22;54.83;;;;;;;;;;5012138;28;20370;-55
2020/12/11 10:36:13;;;;;;;92.63;51.40;;;;;;;;;;5012025;28;20113;-56
2020/12/11 10:38:39;;;;;;;103.55;57.30;;;;;;;;;;5012767;28;20120;-54
2020/12/11 10:41:05;;;;;;;107.70;66.47;;;;;;;;;;5012158;28;20040;-55
2020/12/11 10:43:32;;;;;;;84.90;48.13;;;;;;;;;;5012677;28;20032;-57
2020/12/11 10:45:58;;;;;;;85.80;49.95;;;;;;;;;;5012576;28;20389;-56
2020/12/11 10:48:24;;;;;;;92.05;52.75;;;;;;;;;;5012685;28;20102;-57
2020/12/11 10:50:50;;;;;;;89.97;46.97;;;;;;;;;;5012657;28;20034;-56
2020/12/11 10:53:16;;;;;;;59.17;31.58;;;;;;;;;;5012571;28;20104;-55
2020/12/11 10:55:42;;;;;;;56.72;30.02;;;;;;;;;;5012593;28;20080;-57
2020/12/11 10:58:08;;;;;;;62.20;33.65;;;;;;;;;;5012266;28;20013;-54
2020/12/11 11:00:34;;;;;;;66.47;37.97;;;;;;;;;;5012533;28;20390;-56
2020/12/11 11:03:00;;;;;;;58.97;33.38;;;;;;;;;;5012590;28;20413;-55
2020/12/11 11:05:26;;;;;;;59.25;32.67;;;;;;;;;;5011759;28;20539;-55
2020/12/11 11:07:52;;;;;;;74.93;41.20;;;;;;;;;;5011313;28;20062;-54
2020/12/11 11:10:32;;;;;;;75.40;39.80;;;;;;;;;;5011728;28;20053;-55
2020/12/11 11:15:49;;;;;;;66.18;38.03;;;;;;;;;;5012400;28;20072;-56
2020/12/11 11:18:29;;;;;;;;;;;;;;;;;;5012781;28;20042;-53
2020/12/11 11:28:26;;;;;;;55.75;29.67;;;;;;;;;;5011499;28;20390;-55
2020/12/11 11:30:52;;;;;;;65.40;36.88;;;;;;;;;;5010432;28;20105;-54
2020/12/11 11:33:18;;;;;;;61.88;36.80;;;;;;;;;;5011298;28;20056;-53
2020/12/11 11:35:46;;;;;;;67.80;37.88;;;;;;;;;;5011426;28;20021;-55
2020/12/11 11:38:14;;;;;;;68.93;39.00;;;;;;;;;;5011326;28;20030;-55
2020/12/11 11:40:40;;;;;;;69.15;39.35;;;;;;;;;;5011758;28;20367;-57
2020/12/11 11:43:06;;;;;;;65.93;36.28;;;;;;;;;;5011050;28;20084;-54
2020/12/11 11:45:37;;;;;;;59.47;33.22;;;;;;;;;;5011563;28;20105;-54
2020/12/11 11:48:13;;;;;;;74.40;40.30;;;;;;;;;;5011185;28;20381;-56
2020/12/11 11:51:04;;;;;;;73.30;41.10;;;;;;;;;;5011139;28;20018;-56
2020/12/11 11:53:30;;;;;;;73.93;39.05;;;;;;;;;;5007855;28;20056;-57
2020/12/11 11:55:56;;;;;;;64.68;34.90;;;;;;;;;;5015310;28;20030;-57
2020/12/11 11:58:23;;;;;;;70.38;39.85;;;;;;;;;;5015355;28;20061;-56
2020/12/11 12:00:49;;;;;;;91.07;50.47;;;;;;;;;;5015296;28;20029;-57
2020/12/11 12:03:15;;;;;;;67.10;36.70;;;;;;;;;;5014383;28;20084;-55
2020/12/11 12:05:42;;;;;;;67.63;37.45;;;;;;;;;;5013824;28;20034;-55
2020/12/11 12:08:09;;;;;;;77.68;41.70;;;;;;;;;;5013839;28;20050;-55
2020/12/11 12:10:35;;;;;;;78.18;41.90;;;;;;;;;;5014207;28;20053;-54
2020/12/11 12:13:01;;;;;;;74.43;41.28;;;;;;;;;;5014838;28;20475;-56
2020/12/11 12:15:28;;;;;;;77.30;41.28;;;;;;;;;;5014480;28;20442;-54
2020/12/11 12:20:50;;;;;;;98.95;54.90;;;;;;;;;;5014554;28;20412;-57
2020/12/11 12:28:44;;;;;;;88.63;49.40;;;;;;;;;;5015046;28;20037;-57
2020/12/11 12:31:14;;;;;;;88.00;46.20;;;;;;;;;;5014641;28;20026;-56
2020/12/11 12:37:41;;;;;;;85.35;41.75;;;;;;;;;;5031876;28;20562;-55
2020/12/11 12:44:47;;;;;;;75.90;37.80;;;;;;;;;;5028669;28;20040;-57
2020/12/11 12:47:14;;;;;;;98.07;50.63;;;;;;;;;;5030449;28;20137;-53
2020/12/11 12:49:40;;;;;;;80.65;39.75;;;;;;;;;;5029649;28;20100;-57
2020/12/11 12:52:06;;;;;;;112.80;58.75;;;;;;;;;;5030432;28;20029;-53
2020/12/11 12:54:32;;;;;;;93.95;46.35;;;;;;;;;;5030159;28;20025;-57
2020/12/11 12:57:00;;;;;;;104.57;51.75;;;;;;;;;;5030057;28;20469;-54
2020/12/11 12:59:44;;;;;;;84.30;42.30;;;;;;;;;;5030015;28;20053;-54
2020/12/11 13:07:30;;;;;;;88.15;44.30;;;;;;;;;;5029685;28;20029;-56
2020/12/11 13:09:56;;;;;;;91.72;43.38;;;;;;;;;;5029511;28;20504;-55
2020/12/11 13:12:22;;;;;;;101.32;49.30;;;;;;;;;;5020122;28;20082;-57
2020/12/11 13:14:48;;;;;;;104.25;51.72;;;;;;;;;;5013106;28;20080;-55
2020/12/11 13:17:15;;;;;;;111.03;55.65;;;;;;;;;;5013820;28;20026;-54
2020/12/11 13:19:41;;;;;;;124.65;60.83;;;;;;;;;;5014006;28;20040;-56
2020/12/11 13:27:37;;;;;;;93.53;43.88;;;;;;;;;;5027439;28;20499;-52
2020/12/11 13:30:04;;;;;;;89.78;44.15;;;;;;;;;;5025742;28;20061;-57
2020/12/11 13:32:30;;;;;;;90.68;44.63;;;;;;;;;;5023579;28;20032;-55
2020/12/11 13:34:57;;;;;;;89.43;46.53;;;;;;;;;;5027311;28;20072;-54
2020/12/11 13:37:23;;;;;;;116.43;59.30;;;;;;;;;;5028225;28;20057;-54
2020/12/11 13:39:49;;;;;;;98.90;49.80;;;;;;;;;;5026665;28;20067;-54
2020/12/11 13:42:15;;;;;;;95.53;47.47;;;;;;;;;;5019412;28;20428;-55
2020/12/11 13:44:41;;;;;;;147.65;67.20;;;;;;;;;;5011049;28;20445;-57
2020/12/11 13:47:07;;;;;;;144.43;64.15;;;;;;;;;;5016103;28;20116;-56
2020/12/11 13:49:33;;;;;;;176.40;94.32;;;;;;;;;;5012669;28;20042;-56
2020/12/11 13:51:59;;;;;;;155.15;86.45;;;;;;;;;;5010905;28;20112;-57
2020/12/11 13:54:26;;;;;;;129.93;70.85;;;;;;;;;;5010837;28;20157;-57
2020/12/11 13:56:52;;;;;;;111.47;56.38;;;;;;;;;;5010863;28;20033;-55
2020/12/11 13:59:18;;;;;;;94.32;45.83;;;;;;;;;;5016073;28;20067;-55
2020/12/11 14:01:50;;;;;;;91.20;45.00;;;;;;;;;;5014226;28;20033;-57
2020/12/11 14:04:17;;;;;;;87.25;44.30;;;;;;;;;;5011048;28;20130;-54
2020/12/11 14:06:43;;;;;;;82.05;40.83;;;;;;;;;;5011072;28;20026;-56
2020/12/11 14:09:10;;;;;;;82.85;42.67;;;;;;;;;;5011981;28;20038;-57
2020/12/11 14:11:36;;;;;;;88.13;42.60;;;;;;;;;;5012761;28;20026;-56
2020/12/11 14:14:02;;;;;;;84.20;41.90;;;;;;;;;;5011703;28;20053;-58
2020/12/11 14:16:46;;;;;;;84.70;44.00;;;;;;;;;;5012369;28;20030;-56
2020/12/11 14:21:57;;;;;;;95.05;47.47;;;;;;;;;;5011544;28;20026;-54
2020/12/11 14:24:23;;;;;;;99.25;52.70;;;;;;;;;;5010636;28;20022;-55
2020/12/11 14:26:51;;;;;;;95.95;50.58;;;;;;;;;;5012549;28;20030;-57
2020/12/11 14:29:17;;;;;;;86.93;42.55;;;;;;;;;;5011316;28;20028;-56
2020/12/11 14:31:43;;;;;;;116.03;59.70;;;;;;;;;;5011953;28;20025;-53
2020/12/11 14:34:10;;;;;;;100.60;53.80;;;;;;;;;;5015811;28;20025;-55
2020/12/11 14:36:36;;;;;;;115.72;62.00;;;;;;;;;;5012036;28;20061;-54
2020/12/11 14:39:20;;;;;;;127.32;72.63;;;;;;;;;;5010019;28;20034;-52
2020/12/11 14:41:46;;;;;;;107.07;57.47;;;;;;;;;;5006789;28;20048;-56
2020/12/11 14:44:13;;;;;;;114.30;61.78;;;;;;;;;;5010587;28;20105;-58
2020/12/11 14:46:39;;;;;;;107.20;54.40;;;;;;;;;;5011403;28;20444;-60
2020/12/11 14:49:06;;;;;;;100.93;53.05;;;;;;;;;;5011767;28;20041;-60
2020/12/11 14:51:39;;;;;;;93.80;45.38;;;;;;;;;;5011664;28;20382;-58
2020/12/11 14:54:06;;;;;;;83.18;42.17;;;;;;;;;;5010421;28;20058;-61
2020/12/11 14:56:36;;;;;;;84.05;41.17;;;;;;;;;;5010261;28;20056;-61
2020/12/11 14:59:02;;;;;;;93.85;44.90;;;;;;;;;;5011318;28;20046;-59
2020/12/11 15:01:29;;;;;;;97.22;48.70;;;;;;;;;;5010315;28;20021;-62
2020/12/11 15:03:56;;;;;;;89.93;47.35;;;;;;;;;;5009884;28;20144;-56
2020/12/11 15:06:22;;;;;;;88.88;44.70;;;;;;;;;;5011718;28;20025;-67
2020/12/11 15:08:48;;;;;;;75.75;37.25;;;;;;;;;;5009474;28;20080;-55